CEK weather

Chelyabinsk Balandino Airport
Chelyabinsk, Chelyabinsk Oblast, Russia

Public forecast

Using degrees Celsius for public forecast. Weather courtesy of forecast.io.

METAR (pilot weather report)

Retrieved 2019/04/25 10:00 UTC (4 minutes ago):

USCC 251000Z 32005MPS 9999 SCT040CB 08/M05 Q1012 R27/000060 NOSIG RMK QFE739

TAF (pilot weather forecast)

Retrieved 2019/04/25 09:21 UTC (43 minutes ago):

TAF USCC 250800Z 2509/2609 33005G13MPS 9999 BKN015CB TEMPO 2509/2518 3100 -SHRA BKN011CB